Lahore Weather



Lahore's Current Weather

Temprature 17o smoke

smoke

Rain: 0 %

Min Temprature17o
Max Temprature17o
Humidity72
Wind Speed0.75 m/h
Sun Rise06:15:23
Sun Set17:17:14
Current Time: 28-Oct-2020 05:01:06
Lat/Lon: 31.55, 74.34




Lahore's Geo Location



Lahore's Weather Forecast

Time Overall Temp Min Temp Max Temp Humidity Wind Speed Rain
28-Oct-2020 (Wed)
08:00:00 clear sky 21.010 21.010 22.120 31 1.35 m/h 0 %
11:00:00 clear sky 30.250 30.250 31.160 15 0.87 m/h 0 %
14:00:00 clear sky 32.740 32.740 32.870 11 1.31 m/h 0 %
17:00:00 clear sky 27.650 27.650 27.650 14 0.97 m/h 0 %
20:00:00 clear sky 23.690 23.690 23.690 18 2.39 m/h 0 %
23:00:00 clear sky 21.390 21.390 21.390 21 1.77 m/h 0 %
29-Oct-2020 (Thu)
02:00:00 clear sky 19.340 19.340 19.340 24 2.52 m/h 0 %
05:00:00 clear sky 17.930 17.930 17.930 26 1.93 m/h 0 %
08:00:00 clear sky 22.060 22.060 22.060 21 1.94 m/h 0 %
11:00:00 clear sky 30.570 30.570 30.570 12 2.72 m/h 0 %
14:00:00 clear sky 33.580 33.580 33.580 10 1.46 m/h 0 %
17:00:00 clear sky 28.670 28.670 28.670 14 1.34 m/h 0 %
20:00:00 clear sky 23.510 23.510 23.510 19 1.91 m/h 0 %
23:00:00 clear sky 21.200 21.200 21.200 22 1.8 m/h 0 %
30-Oct-2020 (Fri)
02:00:00 clear sky 19.710 19.710 19.710 24 1.91 m/h 0 %
05:00:00 clear sky 17.660 17.660 17.660 28 1.16 m/h 0 %
08:00:00 clear sky 22.000 22.000 22.000 21 1.68 m/h 0 %
11:00:00 clear sky 30.170 30.170 30.170 13 1.35 m/h 0 %
14:00:00 clear sky 32.800 32.800 32.800 11 1.58 m/h 0 %
17:00:00 clear sky 28.090 28.090 28.090 14 1.8 m/h 0 %
20:00:00 clear sky 23.190 23.190 23.190 19 2.5 m/h 0 %
23:00:00 clear sky 20.330 20.330 20.330 22 2.71 m/h 0 %
31-Oct-2020 (Sat)
02:00:00 clear sky 18.290 18.290 18.290 25 2.39 m/h 0 %
05:00:00 clear sky 16.620 16.620 16.620 28 2.27 m/h 0 %
08:00:00 clear sky 20.400 20.400 20.400 22 2.23 m/h 0 %
11:00:00 clear sky 29.880 29.880 29.880 12 3.55 m/h 0 %
14:00:00 clear sky 33.000 33.000 33.000 9 4.85 m/h 0 %
17:00:00 clear sky 27.350 27.350 27.350 13 2.67 m/h 0 %
20:00:00 clear sky 22.270 22.270 22.270 18 2 m/h 0 %
23:00:00 clear sky 19.400 19.400 19.400 22 1.79 m/h 0 %
01-Nov-2020 (Sun)
02:00:00 clear sky 17.390 17.390 17.390 25 1.06 m/h 0 %
05:00:00 clear sky 15.880 15.880 15.880 28 1.36 m/h 0 %
08:00:00 clear sky 20.000 20.000 20.000 22 0.88 m/h 0 %
11:00:00 clear sky 29.020 29.020 29.020 12 2.26 m/h 0 %
14:00:00 clear sky 32.310 32.310 32.310 9 3.45 m/h 0 %
17:00:00 clear sky 26.670 26.670 26.670 13 1.67 m/h 0 %
20:00:00 clear sky 21.350 21.350 21.350 19 0.71 m/h 0 %
23:00:00 clear sky 19.750 19.750 19.750 21 0.52 m/h 0 %
02-Nov-2020 (Mon)
02:00:00 clear sky 18.060 18.060 18.060 23 1.12 m/h 0 %
05:00:00 clear sky 15.780 15.780 15.780 27 0.21 m/h 0 %


Lahore's Tourist Spots

Historical Places in Lahore

Famous Cities (60)